< Typhoon 195204 1952 Season Typhoon 195206 >
Typhoon 195205 (GILDA)
General InformationTrack Information on Google Maps || Disaster Info.ResourceGoogle EarthGE AnimationAtom FeedGeoJSON
Detalied Best Track (Time Zone = UTC)
Year Month Day Hour Lat. Long. Pressure (hPa) Wind (kt) Class Image Chart
1952 7 15 18 25.3 128.0 999 0 2 -- Chart
1952 7 16 00 25.5 128.3 1001 0 2 -- Chart
1952 7 16 06 25.0 127.8 997 0 9 -- Chart
1952 7 16 12 26.3 126.9 998 0 9 -- Chart
1952 7 16 18 26.2 125.5 998 0 9 -- Chart
1952 7 17 00 25.5 126.7 997 0 9 -- Chart
1952 7 17 06 24.5 126.1 995 0 9 -- Chart
1952 7 17 12 25.5 125.1 994 0 9 -- Chart
1952 7 17 18 26.0 124.2 993 0 9 -- Chart
1952 7 18 00 26.4 123.7 992 0 9 -- Chart
1952 7 18 06 26.6 123.4 992 0 9 -- Chart
1952 7 18 12 26.8 122.7 995 0 9 -- Chart
1952 7 18 18 27.3 121.9 994 0 9 -- Chart
1952 7 19 00 27.8 121.1 994 0 9 -- Chart
1952 7 19 06 28.2 120.3 994 0 9 -- Chart
1952 7 19 12 28.6 119.3 995 0 9 -- Chart
1952 7 19 18 29.7 118.5 996 0 9 -- Chart
1952 7 20 00 30.8 118.1 996 0 9 -- Chart
1952 7 20 06 31.9 118.1 996 0 2 -- Chart
1952 7 20 12 33.1 118.0 996 0 2 -- Chart
1952 7 20 18 34.0 117.6 998 0 2 -- Chart
1952 7 21 00 35.1 117.4 998 0 2 -- Chart
Japan Meteorological Agency Best Track Data | Correction Date : 1989-06-01
< Typhoon 195204 1952 Season Typhoon 195206 >

Help